Time;durP1;ratioP1;P1;durP2;ratioP2;P2;SDS_P1;SDS_P2;PMS_P1;PMS_P2;Temp;Humidity;BMP_temperature;BMP_pressure;BME280_temperature;BME280_humidity;BME280_pressure;Samples;Min_cycle;Max_cycle;Signal;HPM_P1;HPM_P2
2024/02/08 00:01:04;;;;;;;36.15;34.30;;;;;;;;;;5017013;28;20042;-63
2024/02/08 00:03:29;;;;;;;34.58;32.78;;;;;;;;;;5021563;28;20029;-63
2024/02/08 00:05:55;;;;;;;37.03;35.13;;;;;;;;;;5019798;28;20045;-63
2024/02/08 00:08:20;;;;;;;36.85;34.97;;;;;;;;;;5017125;28;20033;-62
2024/02/08 00:10:47;;;;;;;32.65;30.95;;;;;;;;;;5017654;28;20047;-62
2024/02/08 00:13:13;;;;;;;32.03;30.38;;;;;;;;;;5018937;28;20349;-62
2024/02/08 00:15:39;;;;;;;33.20;31.50;;;;;;;;;;5022233;28;20038;-63
2024/02/08 00:18:04;;;;;;;33.60;31.73;;;;;;;;;;5018101;28;20033;-62
2024/02/08 00:20:29;;;;;;;36.20;34.35;;;;;;;;;;5023187;28;20038;-62
2024/02/08 00:22:55;;;;;;;39.17;37.17;;;;;;;;;;5019110;28;20071;-62
2024/02/08 00:25:24;;;;;;;40.53;38.45;;;;;;;;;;5022860;28;20069;-62
2024/02/08 00:27:50;;;;;;;40.97;38.90;;;;;;;;;;5020043;28;20060;-62
2024/02/08 00:30:15;;;;;;;44.15;41.92;;;;;;;;;;5021337;28;20061;-63
2024/02/08 00:32:41;;;;;;;41.17;39.08;;;;;;;;;;5020232;28;20037;-63
2024/02/08 00:35:07;;;;;;;39.45;37.42;;;;;;;;;;5024367;28;20025;-62
2024/02/08 00:37:33;;;;;;;39.78;37.72;;;;;;;;;;5020067;28;20143;-62
2024/02/08 00:39:58;;;;;;;40.22;38.15;;;;;;;;;;5021615;28;20475;-64
2024/02/08 00:42:23;;;;;;;38.15;36.17;;;;;;;;;;5024687;28;20072;-63
2024/02/08 00:44:50;;;;;;;37.53;35.60;;;;;;;;;;5020055;28;20059;-63
2024/02/08 00:47:15;;;;;;;37.92;35.97;;;;;;;;;;5018549;28;20084;-62
2024/02/08 00:49:40;;;;;;;39.05;37.05;;;;;;;;;;5018139;28;20053;-62
2024/02/08 00:52:07;;;;;;;36.30;34.40;;;;;;;;;;5022928;28;20036;-63
2024/02/08 00:54:33;;;;;;;35.47;33.63;;;;;;;;;;5018477;28;20096;-62
2024/02/08 00:56:58;;;;;;;37.08;35.17;;;;;;;;;;5022732;28;20422;-62
2024/02/08 00:59:24;;;;;;;38.28;36.28;;;;;;;;;;5022179;28;20029;-62
2024/02/08 01:01:49;;;;;;;35.63;33.78;;;;;;;;;;5021629;28;20040;-62
2024/02/08 01:04:14;;;;;;;36.60;34.70;;;;;;;;;;5017085;28;20029;-62
2024/02/08 01:06:40;;;;;;;36.03;34.15;;;;;;;;;;5020479;28;20048;-62
2024/02/08 01:09:07;;;;;;;34.88;33.08;;;;;;;;;;5019777;28;20033;-62
2024/02/08 01:11:33;;;;;;;35.10;33.30;;;;;;;;;;5017505;28;20033;-62
2024/02/08 01:13:58;;;;;;;36.30;34.42;;;;;;;;;;5020546;28;20621;-62
2024/02/08 01:16:30;;;;;;;39.50;37.47;;;;;;;;;;5021289;28;20037;-62
2024/02/08 01:18:55;;;;;;;38.90;36.92;;;;;;;;;;5017981;28;20033;-62
2024/02/08 01:21:22;;;;;;;40.20;38.15;;;;;;;;;;5022053;28;20021;-62
2024/02/08 01:23:48;;;;;;;38.83;36.85;;;;;;;;;;5017584;28;20034;-62
2024/02/08 01:26:15;;;;;;;40.13;38.10;;;;;;;;;;5018554;28;20036;-62
2024/02/08 01:28:41;;;;;;;37.00;35.10;;;;;;;;;;5023701;28;20042;-62
2024/02/08 01:31:06;;;;;;;36.42;34.58;;;;;;;;;;5020773;28;20348;-62
2024/02/08 01:33:35;;;;;;;37.00;35.10;;;;;;;;;;5019402;28;20041;-62
2024/02/08 01:36:02;;;;;;;37.88;35.95;;;;;;;;;;5020771;28;20084;-61
2024/02/08 01:38:27;;;;;;;40.47;38.42;;;;;;;;;;5018940;28;20033;-61
2024/02/08 01:40:53;;;;;;;40.10;37.85;;;;;;;;;;5019429;28;20539;-62
2024/02/08 01:43:18;;;;;;;40.47;38.40;;;;;;;;;;5019660;28;20083;-62
2024/02/08 01:45:43;;;;;;;42.15;40.00;;;;;;;;;;5020286;28;20057;-61
2024/02/08 01:48:10;;;;;;;43.80;41.58;;;;;;;;;;5019689;28;20064;-62
2024/02/08 01:50:50;;;;;;;41.45;39.35;;;;;;;;;;5021671;28;20056;-61
2024/02/08 01:53:24;;;;;;;42.30;40.00;;;;;;;;;;5019407;28;20038;-62
2024/02/08 01:55:50;;;;;;;44.20;41.95;;;;;;;;;;5020644;28;20112;-61
2024/02/08 01:58:16;;;;;;;43.90;41.67;;;;;;;;;;5019897;28;20051;-61
2024/02/08 02:00:48;;;;;;;46.75;44.35;;;;;;;;;;5020976;28;20523;-62
2024/02/08 02:03:15;;;;;;;43.67;41.47;;;;;;;;;;5012448;28;20383;-62
2024/02/08 02:05:46;;;;;;;43.53;41.30;;;;;;;;;;5020270;28;20069;-62
2024/02/08 02:08:18;;;;;;;42.97;40.78;;;;;;;;;;5016628;28;20351;-62
2024/02/08 02:11:05;;;;;;;43.25;40.95;;;;;;;;;;5022634;28;20437;-62
2024/02/08 02:13:33;;;;;;;41.33;39.22;;;;;;;;;;5017220;28;20029;-62
2024/02/08 02:15:59;;;;;;;40.78;38.67;;;;;;;;;;5022241;28;20056;-62
2024/02/08 02:18:24;;;;;;;40.75;38.67;;;;;;;;;;5018881;28;20082;-62
2024/02/08 02:20:54;;;;;;;43.60;41.35;;;;;;;;;;5018502;28;20048;-62
2024/02/08 02:23:19;;;;;;;45.25;42.95;;;;;;;;;;5017253;28;20467;-63
2024/02/08 02:25:48;;;;;;;45.17;42.88;;;;;;;;;;5019098;28;20083;-62
2024/02/08 02:28:15;;;;;;;44.47;42.17;;;;;;;;;;5019550;28;20041;-62
2024/02/08 02:30:44;;;;;;;44.03;41.75;;;;;;;;;;5019503;28;20041;-62
2024/02/08 02:33:12;;;;;;;43.45;41.22;;;;;;;;;;5016716;28;20033;-62
2024/02/08 02:35:39;;;;;;;43.05;40.85;;;;;;;;;;5016915;28;20087;-62
2024/02/08 02:38:04;;;;;;;41.78;39.65;;;;;;;;;;5018122;28;20111;-62
2024/02/08 02:40:30;;;;;;;43.83;41.55;;;;;;;;;;5018068;28;20061;-62
2024/02/08 02:42:56;;;;;;;44.05;41.78;;;;;;;;;;5018930;28;20764;-62
2024/02/08 02:45:23;;;;;;;44.67;42.38;;;;;;;;;;5018957;28;20160;-62
2024/02/08 02:47:53;;;;;;;43.47;41.28;;;;;;;;;;5019520;28;20037;-62
2024/02/08 02:50:25;;;;;;;44.10;41.88;;;;;;;;;;5018839;28;20459;-62
2024/02/08 02:52:51;;;;;;;43.47;41.28;;;;;;;;;;5020107;28;20043;-62
2024/02/08 02:55:17;;;;;;;45.17;42.88;;;;;;;;;;5019936;28;20038;-62
2024/02/08 02:57:43;;;;;;;45.00;42.70;;;;;;;;;;5017797;28;20055;-62
2024/02/08 03:00:21;;;;;;;45.17;42.88;;;;;;;;;;5021118;28;20647;-62
2024/02/08 03:02:49;;;;;;;47.40;45.00;;;;;;;;;;5019239;28;20479;-62
2024/02/08 03:05:15;;;;;;;50.40;47.72;;;;;;;;;;5019132;28;20037;-62
2024/02/08 03:07:42;;;;;;;48.72;46.25;;;;;;;;;;5018442;28;20041;-62
2024/02/08 03:10:11;;;;;;;49.17;46.67;;;;;;;;;;5018849;28;20072;-62
2024/02/08 03:12:37;;;;;;;45.60;43.28;;;;;;;;;;5018012;28;20030;-62
2024/02/08 03:15:03;;;;;;;45.08;42.72;;;;;;;;;;5034041;28;20029;-62
2024/02/08 03:17:32;;;;;;;43.45;41.10;;;;;;;;;;5019092;28;20176;-62
2024/02/08 03:19:57;;;;;;;40.03;37.92;;;;;;;;;;5019834;28;20087;-62
2024/02/08 03:22:23;;;;;;;42.53;40.33;;;;;;;;;;5021819;28;20054;-62
2024/02/08 03:24:49;;;;;;;44.33;42.00;;;;;;;;;;5021403;28;20037;-61
2024/02/08 03:27:21;;;;;;;44.17;41.92;;;;;;;;;;5023804;28;20069;-62
2024/02/08 03:29:53;;;;;;;44.00;41.70;;;;;;;;;;5022673;28;20056;-62
2024/02/08 03:32:23;;;;;;;44.00;41.65;;;;;;;;;;5019778;28;20470;-62
2024/02/08 03:34:50;;;;;;;42.60;40.40;;;;;;;;;;5026577;28;20517;-62
2024/02/08 03:37:16;;;;;;;44.42;42.13;;;;;;;;;;5024147;28;20475;-62
2024/02/08 03:39:41;;;;;;;43.95;41.58;;;;;;;;;;5021489;28;20040;-62
2024/02/08 03:42:07;;;;;;;46.13;43.78;;;;;;;;;;5020420;28;20053;-62
2024/02/08 03:44:33;;;;;;;45.58;43.25;;;;;;;;;;5019155;28;20602;-63
2024/02/08 03:47:07;;;;;;;46.90;44.50;;;;;;;;;;5024396;28;20590;-63
2024/02/08 03:49:33;;;;;;;46.13;43.75;;;;;;;;;;5019478;28;20093;-63
2024/02/08 03:51:59;;;;;;;39.10;37.10;;;;;;;;;;5023008;28;20416;-63
2024/02/08 03:54:30;;;;;;;40.92;38.78;;;;;;;;;;5007796;28;20088;-63
2024/02/08 03:56:59;;;;;;;40.53;38.42;;;;;;;;;;5020600;28;20099;-63
2024/02/08 03:59:28;;;;;;;39.97;37.92;;;;;;;;;;5020850;28;20468;-63
2024/02/08 04:02:01;;;;;;;44.67;42.30;;;;;;;;;;5021840;28;20045;-64
2024/02/08 04:04:47;;;;;;;43.88;41.58;;;;;;;;;;5022802;28;20033;-63
2024/02/08 04:07:21;;;;;;;42.65;40.45;;;;;;;;;;5022189;28;20030;-63
2024/02/08 04:09:55;;;;;;;41.05;38.95;;;;;;;;;;5019088;28;20588;-63
2024/02/08 04:53:36;;;;;;;39.53;37.45;;;;;;;;;;5018093;28;20554;-63
2024/02/08 04:56:08;;;;;;;42.63;40.42;;;;;;;;;;5022408;28;20065;-62
2024/02/08 04:58:41;;;;;;;42.78;40.55;;;;;;;;;;5020567;28;20043;-62
2024/02/08 05:01:10;;;;;;;40.10;38.05;;;;;;;;;;5022824;28;20048;-52
2024/02/08 05:03:38;;;;;;;40.63;38.42;;;;;;;;;;5020796;28;20037;-53
2024/02/08 05:06:11;;;;;;;41.50;39.35;;;;;;;;;;5009886;28;20045;-51
2024/02/08 05:08:44;;;;;;;41.83;39.67;;;;;;;;;;5012346;28;20030;-53
2024/02/08 05:11:09;;;;;;;38.20;36.20;;;;;;;;;;5013179;28;20046;-50
2024/02/08 05:13:42;;;;;;;39.25;37.22;;;;;;;;;;5020419;28;20116;-50
2024/02/08 05:16:14;;;;;;;41.58;39.45;;;;;;;;;;5019429;28;20044;-52
2024/02/08 05:18:43;;;;;;;44.80;42.50;;;;;;;;;;5020771;28;20022;-51
2024/02/08 05:21:13;;;;;;;41.80;39.67;;;;;;;;;;5019145;28;20048;-49
2024/02/08 05:23:40;;;;;;;44.35;42.05;;;;;;;;;;5020831;28;20049;-52
2024/02/08 05:26:08;;;;;;;43.42;41.22;;;;;;;;;;5017645;28;20037;-50
2024/02/08 05:28:33;;;;;;;46.53;44.15;;;;;;;;;;5019827;28;20040;-53
2024/02/08 05:30:59;;;;;;;47.38;44.97;;;;;;;;;;5016858;28;20615;-50
2024/02/08 05:33:29;;;;;;;41.90;39.78;;;;;;;;;;5019517;28;20042;-49
2024/02/08 05:35:56;;;;;;;45.00;42.72;;;;;;;;;;5018905;28;20074;-47
2024/02/08 05:38:22;;;;;;;45.28;42.97;;;;;;;;;;5017687;28;20048;-48
2024/02/08 05:40:51;;;;;;;41.75;39.60;;;;;;;;;;5019692;28;20471;-49
2024/02/08 05:43:30;;;;;;;47.22;44.83;;;;;;;;;;5019997;28;20033;-51
2024/02/08 05:45:55;;;;;;;44.47;42.17;;;;;;;;;;5019287;28;20033;-52
2024/02/08 05:48:23;;;;;;;50.03;47.50;;;;;;;;;;5012016;28;20030;-49
2024/02/08 05:50:56;;;;;;;45.05;42.78;;;;;;;;;;5016150;28;20443;-54
2024/02/08 05:53:24;;;;;;;43.17;41.00;;;;;;;;;;5018555;28;20403;-61
2024/02/08 05:55:52;;;;;;;41.10;39.00;;;;;;;;;;5017775;28;20036;-61
2024/02/08 05:58:18;;;;;;;42.30;40.15;;;;;;;;;;5018001;28;20044;-61
2024/02/08 06:01:01;;;;;;;43.45;41.25;;;;;;;;;;5020166;28;20068;-61
2024/02/08 06:03:31;;;;;;;44.20;41.75;;;;;;;;;;5021320;28;20065;-61
2024/02/08 06:06:16;;;;;;;43.30;41.10;;;;;;;;;;5019290;28;20045;-61
2024/02/08 06:08:42;;;;;;;41.58;39.45;;;;;;;;;;5019154;28;20128;-62
2024/02/08 06:11:16;;;;;;;39.65;37.65;;;;;;;;;;5020822;28;20120;-61
2024/02/08 06:13:43;;;;;;;38.97;37.00;;;;;;;;;;5019584;28;20369;-61
2024/02/08 06:16:14;;;;;;;42.50;40.35;;;;;;;;;;5019184;28;20057;-62
2024/02/08 06:18:45;;;;;;;44.50;42.22;;;;;;;;;;5020258;28;20049;-61
2024/02/08 06:21:15;;;;;;;39.50;37.45;;;;;;;;;;5018257;28;20421;-61
2024/02/08 06:23:45;;;;;;;40.78;38.70;;;;;;;;;;5017688;28;20037;-63
2024/02/08 06:31:40;;;;;;;40.45;38.38;;;;;;;;;;5012074;28;20084;-61
2024/02/08 06:36:34;;;;;;;44.40;42.13;;;;;;;;;;5022118;28;20609;-61
2024/02/08 06:39:20;;;;;;;47.65;45.20;;;;;;;;;;5022258;28;20029;-62
2024/02/08 06:41:52;;;;;;;43.35;41.15;;;;;;;;;;5019864;28;20502;-61
2024/02/08 06:47:54;;;;;;;40.75;38.63;;;;;;;;;;5018990;28;20104;-61
2024/02/08 07:39:34;;;;;;;40.03;37.97;;;;;;;;;;5021379;28;20460;-61
2024/02/08 07:42:19;;;;;;;42.35;40.17;;;;;;;;;;5020442;28;20037;-61
2024/02/08 07:44:50;;;;;;;44.10;41.80;;;;;;;;;;5025610;28;20061;-61
2024/02/08 07:47:24;;;;;;;43.97;41.73;;;;;;;;;;5022339;28;20045;-60
2024/02/08 07:49:57;;;;;;;43.50;41.30;;;;;;;;;;5023295;28;20073;-60
2024/02/08 07:52:24;;;;;;;41.95;39.80;;;;;;;;;;5023576;28;20416;-61
2024/02/08 07:54:56;;;;;;;44.53;42.22;;;;;;;;;;5023848;28;20351;-60
2024/02/08 07:57:26;;;;;;;47.50;45.05;;;;;;;;;;5023268;28;20033;-60
2024/02/08 07:59:59;;;;;;;45.10;42.80;;;;;;;;;;5023411;28;20169;-60
2024/02/08 08:02:29;;;;;;;47.70;45.20;;;;;;;;;;5021566;28;20030;-61
2024/02/08 08:04:55;;;;;;;48.42;45.92;;;;;;;;;;5019239;28;20100;-60
2024/02/08 08:07:23;;;;;;;46.72;44.33;;;;;;;;;;5021979;28;20291;-60
2024/02/08 08:09:59;;;;;;;48.95;46.45;;;;;;;;;;5020769;28;20127;-60
2024/02/08 08:12:29;;;;;;;46.38;43.88;;;;;;;;;;5023450;28;20413;-60
2024/02/08 08:19:54;;;;;;;44.30;42.03;;;;;;;;;;5020692;28;20029;-60
2024/02/08 08:22:50;;;;;;;47.10;44.42;;;;;;;;;;5021435;28;20107;-61
2024/02/08 08:27:47;;;;;;;43.65;41.30;;;;;;;;;;5022545;28;20083;-60
2024/02/08 08:30:27;;;;;;;44.15;41.85;;;;;;;;;;5022669;28;20263;-60
2024/02/08 08:35:37;;;;;;;42.92;40.72;;;;;;;;;;5021936;28;20271;-60
2024/02/08 08:40:48;;;;;;;45.17;42.88;;;;;;;;;;5022560;28;20037;-61
2024/02/08 08:43:20;;;;;;;46.90;44.50;;;;;;;;;;5021693;28;20127;-61
2024/02/08 08:45:50;;;;;;;45.80;43.47;;;;;;;;;;5021338;28;20281;-61
2024/02/08 08:48:29;;;;;;;47.47;45.07;;;;;;;;;;5020792;28;20053;-61
2024/02/08 08:50:56;;;;;;;48.72;46.22;;;;;;;;;;5020829;28;20278;-62
2024/02/08 08:53:28;;;;;;;47.75;45.35;;;;;;;;;;5021763;28;20040;-60
2024/02/08 08:55:57;;;;;;;50.15;47.22;;;;;;;;;;5021153;28;20124;-61
2024/02/08 08:58:27;;;;;;;51.53;48.92;;;;;;;;;;5020134;28;20033;-61
2024/02/08 09:01:11;;;;;;;48.88;46.38;;;;;;;;;;5021750;28;20033;-61
2024/02/08 09:03:39;;;;;;;46.95;44.55;;;;;;;;;;5021976;28;20106;-61
2024/02/08 09:06:12;;;;;;;50.70;48.10;;;;;;;;;;5021712;28;20434;-61
2024/02/08 09:08:54;;;;;;;47.63;45.13;;;;;;;;;;5019390;28;20041;-62
2024/02/08 09:11:26;;;;;;;49.35;46.83;;;;;;;;;;5021355;28;20108;-62
2024/02/08 09:13:52;;;;;;;48.47;45.97;;;;;;;;;;5021721;28;20041;-62
2024/02/08 09:21:32;;;;;;;47.03;44.55;;;;;;;;;;5021671;28;20034;-61
2024/02/08 09:23:58;;;;;;;48.97;46.47;;;;;;;;;;5018921;28;20083;-62
2024/02/08 09:26:32;;;;;;;48.15;45.67;;;;;;;;;;5020837;28;20033;-62
2024/02/08 09:29:00;;;;;;;48.42;45.95;;;;;;;;;;5021555;28;20091;-62
2024/02/08 09:31:38;;;;;;;49.50;46.92;;;;;;;;;;5023639;28;20033;-62
2024/02/08 09:34:14;;;;;;;47.15;44.75;;;;;;;;;;5019214;28;20497;-62
2024/02/08 09:36:41;;;;;;;47.30;44.90;;;;;;;;;;5020095;28;20233;-61
2024/02/08 09:39:16;;;;;;;46.80;44.40;;;;;;;;;;5089854;27;21269;-60
2024/02/08 09:41:45;;;;;;;42.00;39.90;;;;;;;;;;5083713;28;20046;-62
2024/02/08 09:44:11;;;;;;;44.33;42.05;;;;;;;;;;5082164;28;20063;-62
2024/02/08 09:49:13;;;;;;;38.28;36.33;;;;;;;;;;5098457;28;20528;-62
2024/02/08 09:51:52;;;;;;;39.58;37.38;;;;;;;;;;5084306;28;20366;-62
2024/02/08 09:54:28;;;;;;;38.70;36.70;;;;;;;;;;5084195;28;20035;-62
2024/02/08 09:57:01;;;;;;;38.60;36.60;;;;;;;;;;5080977;28;20611;-62
2024/02/08 10:02:23;;;;;;;43.22;41.03;;;;;;;;;;5080173;28;20033;-63
2024/02/08 10:04:56;;;;;;;41.45;39.35;;;;;;;;;;5079851;28;20055;-62
2024/02/08 10:07:33;;;;;;;41.20;39.00;;;;;;;;;;5079659;28;20041;-62
2024/02/08 10:10:20;;;;;;;41.47;39.30;;;;;;;;;;5081254;28;20024;-62
2024/02/08 10:13:04;;;;;;;40.20;38.13;;;;;;;;;;5079853;28;20048;-62
2024/02/08 10:15:44;;;;;;;39.83;37.78;;;;;;;;;;5082139;28;20036;-63
2024/02/08 10:18:22;;;;;;;42.10;39.80;;;;;;;;;;5079018;28;20028;-62
2024/02/08 10:20:48;;;;;;;39.58;37.53;;;;;;;;;;5080868;28;20047;-63
2024/02/08 10:23:33;;;;;;;42.65;40.42;;;;;;;;;;5079580;28;20024;-63
2024/02/08 10:28:46;;;;;;;39.97;37.88;;;;;;;;;;5086143;28;20453;-63
2024/02/08 10:31:18;;;;;;;45.10;42.67;;;;;;;;;;5081315;28;20438;-62
2024/02/08 10:33:48;;;;;;;39.88;37.67;;;;;;;;;;5079760;28;20035;-63
2024/02/08 10:36:21;;;;;;;38.83;36.80;;;;;;;;;;5080390;28;20032;-61
2024/02/08 10:38:56;;;;;;;37.00;35.08;;;;;;;;;;5080784;28;20722;-61
2024/02/08 10:41:44;;;;;;;36.80;34.90;;;;;;;;;;5080717;28;20092;-62
2024/02/08 10:44:17;;;;;;;34.92;33.10;;;;;;;;;;5079070;28;20325;-64
2024/02/08 10:46:46;;;;;;;34.53;32.65;;;;;;;;;;5082735;28;20029;-62
2024/02/08 10:49:12;;;;;;;40.40;38.30;;;;;;;;;;5074628;28;20032;-62
2024/02/08 10:51:43;;;;;;;40.08;38.03;;;;;;;;;;5066645;28;20112;-62
2024/02/08 10:54:14;;;;;;;;;;;;;;;;;;5067351;28;20166;-61
2024/02/08 10:56:43;;;;;;;31.95;30.25;;;;;;;;;;5068341;28;19920;-62
2024/02/08 10:59:13;;;;;;;33.50;31.77;;;;;;;;;;5064335;28;20032;-61
2024/02/08 11:04:18;;;;;;;39.22;37.22;;;;;;;;;;5066586;28;20450;-63
2024/02/08 11:06:54;;;;;;;38.05;36.13;;;;;;;;;;5066259;28;20059;-63
2024/02/08 11:09:21;;;;;;;38.83;36.83;;;;;;;;;;5070166;28;20765;-61
2024/02/08 11:11:59;;;;;;;40.17;38.08;;;;;;;;;;5070706;28;20042;-62
2024/02/08 11:14:28;;;;;;;39.08;37.05;;;;;;;;;;5085811;28;20107;-62
2024/02/08 11:16:54;;;;;;;43.88;41.65;;;;;;;;;;5070479;28;20036;-62
2024/02/08 11:19:22;;;;;;;43.58;41.38;;;;;;;;;;5068698;28;20028;-61
2024/02/08 11:21:49;;;;;;;46.60;44.22;;;;;;;;;;5067542;28;20116;-63
2024/02/08 11:24:28;;;;;;;45.83;43.45;;;;;;;;;;5068216;28;20048;-62
2024/02/08 11:27:01;;;;;;;43.63;41.40;;;;;;;;;;5064165;28;20401;-62
2024/02/08 11:29:27;;;;;;;45.25;42.95;;;;;;;;;;5066622;28;20040;-62
2024/02/08 11:31:55;;;;;;;49.13;46.63;;;;;;;;;;5069221;28;20102;-62
2024/02/08 11:34:24;;;;;;;50.33;47.80;;;;;;;;;;5066206;28;20040;-62
2024/02/08 11:36:53;;;;;;;46.75;44.38;;;;;;;;;;5065020;28;20024;-61
2024/02/08 11:39:26;;;;;;;49.00;46.50;;;;;;;;;;5066042;28;20123;-63
2024/02/08 11:41:53;;;;;;;50.10;47.58;;;;;;;;;;5067027;28;20051;-62
2024/02/08 11:44:24;;;;;;;50.70;48.13;;;;;;;;;;5065207;28;20101;-63
2024/02/08 11:46:51;;;;;;;52.35;49.70;;;;;;;;;;5066925;28;20025;-62
2024/02/08 11:49:31;;;;;;;53.65;50.92;;;;;;;;;;5066318;28;20044;-63
2024/02/08 11:51:57;;;;;;;51.05;48.45;;;;;;;;;;5066425;28;20036;-62
2024/02/08 11:54:28;;;;;;;59.80;56.70;;;;;;;;;;5072587;28;20038;-63
2024/02/08 11:56:55;;;;;;;;;;;;;;;;;;5069836;28;20044;-63
2024/02/08 11:59:23;;;;;;;48.53;46.08;;;;;;;;;;5070895;28;20002;-63
2024/02/08 12:01:49;;;;;;;55.42;52.63;;;;;;;;;;5064268;28;20032;-62
2024/02/08 12:04:16;;;;;;;61.75;58.65;;;;;;;;;;5065372;28;20120;-62
2024/02/08 12:06:45;;;;;;;58.55;55.55;;;;;;;;;;5069047;28;20025;-61
2024/02/08 12:09:22;;;;;;;60.35;57.33;;;;;;;;;;5065349;28;20425;-63
2024/02/08 12:11:49;;;;;;;62.88;59.65;;;;;;;;;;5066946;28;20067;-63
2024/02/08 12:14:16;;;;;;;67.95;64.55;;;;;;;;;;5066684;28;20074;-63
2024/02/08 12:16:46;;;;;;;73.63;69.95;;;;;;;;;;5065046;28;20131;-62
2024/02/08 12:19:18;;;;;;;74.65;70.80;;;;;;;;;;5065916;28;20040;-61
2024/02/08 12:21:52;;;;;;;75.78;71.95;;;;;;;;;;5064382;28;20032;-62
2024/02/08 12:24:18;;;;;;;77.57;73.70;;;;;;;;;;5067403;28;20039;-63
2024/02/08 12:26:45;;;;;;;73.95;70.28;;;;;;;;;;5065692;28;20047;-62
2024/02/08 12:29:18;;;;;;;76.95;73.13;;;;;;;;;;5065116;28;20368;-61
2024/02/08 12:31:48;;;;;;;81.70;77.60;;;;;;;;;;5064671;28;20035;-63
2024/02/08 12:34:17;;;;;;;77.97;74.03;;;;;;;;;;5063349;28;20462;-61
2024/02/08 12:36:46;;;;;;;77.32;73.35;;;;;;;;;;5062466;28;20458;-61
2024/02/08 12:39:18;;;;;;;81.88;77.38;;;;;;;;;;5066004;28;20036;-63
2024/02/08 12:41:47;;;;;;;83.07;78.95;;;;;;;;;;5066796;28;20123;-63
2024/02/08 12:44:20;;;;;;;85.65;81.43;;;;;;;;;;5066181;28;20043;-62
2024/02/08 12:46:47;;;;;;;92.20;87.65;;;;;;;;;;5065246;28;20056;-62
2024/02/08 12:49:15;;;;;;;87.18;82.82;;;;;;;;;;5065690;28;20571;-62
2024/02/08 12:51:40;;;;;;;89.25;84.82;;;;;;;;;;5066442;28;20028;-62
2024/02/08 12:54:07;;;;;;;87.05;82.72;;;;;;;;;;5064111;28;20551;-63
2024/02/08 12:56:36;;;;;;;92.18;87.60;;;;;;;;;;5065799;28;20051;-62
2024/02/08 12:59:04;;;;;;;93.50;88.82;;;;;;;;;;5063675;28;20071;-63
2024/02/08 13:01:41;;;;;;;95.88;91.05;;;;;;;;;;5063272;28;20033;-62
2024/02/08 13:04:07;;;;;;;92.75;88.18;;;;;;;;;;5068258;28;20041;-62
2024/02/08 13:06:33;;;;;;;91.88;86.80;;;;;;;;;;5068202;28;20035;-62
2024/02/08 13:09:25;;;;;;;100.50;95.55;;;;;;;;;;5066708;28;20036;-62
2024/02/08 13:12:14;;;;;;;95.10;90.40;;;;;;;;;;5064689;28;20036;-63
2024/02/08 13:15:05;;;;;;;94.75;90.05;;;;;;;;;;5067506;28;20064;-62
2024/02/08 13:17:33;;;;;;;;;;;;;;;;;;5065950;28;20768;-62
2024/02/08 13:19:59;;;;;;;83.32;79.20;;;;;;;;;;5067655;28;19924;-62
2024/02/08 13:22:30;;;;;;;89.40;85.00;;;;;;;;;;5067298;28;20060;-62
2024/02/08 13:24:57;;;;;;;103.22;98.15;;;;;;;;;;5065599;28;20432;-63
2024/02/08 13:27:24;;;;;;;92.60;87.97;;;;;;;;;;5062779;28;20430;-63
2024/02/08 13:29:53;;;;;;;85.90;81.60;;;;;;;;;;5068123;28;20125;-63
2024/02/08 13:32:24;;;;;;;86.65;82.30;;;;;;;;;;5069284;28;20225;-62
2024/02/08 13:34:51;;;;;;;91.30;86.70;;;;;;;;;;5067514;28;20043;-63
2024/02/08 13:37:16;;;;;;;94.78;90.10;;;;;;;;;;5065388;28;20028;-61
2024/02/08 13:39:42;;;;;;;91.60;87.03;;;;;;;;;;5065246;28;20393;-63
2024/02/08 13:42:09;;;;;;;96.97;92.13;;;;;;;;;;5063974;28;20037;-62
2024/02/08 13:44:35;;;;;;;86.25;81.97;;;;;;;;;;5065567;28;20047;-62
2024/02/08 13:47:04;;;;;;;77.80;73.80;;;;;;;;;;5062231;28;20052;-62
2024/02/08 13:49:32;;;;;;;78.35;74.45;;;;;;;;;;5079704;28;20054;-63
2024/02/08 13:51:58;;;;;;;82.00;77.93;;;;;;;;;;5065208;28;20039;-63
2024/02/08 13:54:27;;;;;;;77.80;73.88;;;;;;;;;;5062026;28;20336;-61
2024/02/08 13:56:55;;;;;;;82.72;78.63;;;;;;;;;;5065048;28;20033;-61
2024/02/08 13:59:20;;;;;;;82.68;78.53;;;;;;;;;;5065829;28;20043;-61
2024/02/08 14:01:46;;;;;;;95.65;90.82;;;;;;;;;;5064304;28;20040;-61
2024/02/08 14:04:20;;;;;;;87.47;83.13;;;;;;;;;;5065230;28;20119;-61
2024/02/08 14:06:51;;;;;;;85.80;81.38;;;;;;;;;;5067609;28;20136;-61
2024/02/08 14:09:20;;;;;;;;;;;;;;;;;;5062900;28;20028;-62
2024/02/08 14:11:52;;;;;;;71.63;68.05;;;;;;;;;;5061622;28;19920;-61
2024/02/08 14:14:19;;;;;;;77.25;73.38;;;;;;;;;;5064969;28;20505;-62
2024/02/08 14:16:52;;;;;;;88.40;83.97;;;;;;;;;;5062676;28;20033;-61
2024/02/08 14:19:21;;;;;;;84.15;79.90;;;;;;;;;;5065711;28;20480;-62
2024/02/08 14:21:47;;;;;;;85.70;81.45;;;;;;;;;;5061169;28;20516;-61
2024/02/08 14:24:14;;;;;;;89.38;84.93;;;;;;;;;;5063290;28;20112;-62
2024/02/08 14:26:43;;;;;;;85.75;81.47;;;;;;;;;;5068115;28;20086;-61
2024/02/08 14:29:08;;;;;;;87.15;82.78;;;;;;;;;;5066121;28;20504;-61
2024/02/08 14:31:35;;;;;;;82.85;78.70;;;;;;;;;;5069506;28;20090;-61
2024/02/08 14:34:02;;;;;;;91.00;86.45;;;;;;;;;;5070116;28;20032;-61
2024/02/08 14:36:28;;;;;;;77.60;73.72;;;;;;;;;;5065431;28;20047;-61
2024/02/08 14:38:54;;;;;;;80.93;76.90;;;;;;;;;;5065893;28;20442;-61
2024/02/08 14:41:34;;;;;;;96.55;91.78;;;;;;;;;;5064367;28;20036;-62
2024/02/08 14:44:07;;;;;;;80.90;76.90;;;;;;;;;;5067478;28;20056;-61
2024/02/08 14:46:39;;;;;;;85.70;81.45;;;;;;;;;;5069001;28;20329;-61
2024/02/08 14:49:16;;;;;;;84.07;79.75;;;;;;;;;;5071382;28;20036;-62
2024/02/08 14:51:47;;;;;;;85.15;80.78;;;;;;;;;;5068604;28;20131;-62
2024/02/08 14:54:13;;;;;;;73.95;70.28;;;;;;;;;;5066410;28;20036;-62
2024/02/08 14:56:41;;;;;;;82.22;77.97;;;;;;;;;;5068226;28;20035;-61
2024/02/08 14:59:13;;;;;;;75.45;71.60;;;;;;;;;;5067202;28;20273;-62
2024/02/08 15:01:39;;;;;;;99.57;94.53;;;;;;;;;;5067024;28;20051;-62
2024/02/08 15:04:15;;;;;;;117.40;110.55;;;;;;;;;;5065768;28;20032;-63
2024/02/08 15:07:05;;;;;;;116.53;110.72;;;;;;;;;;5068454;28;20542;-61
2024/02/08 15:14:45;;;;;;;137.13;130.25;;;;;;;;;;5063240;28;20054;-61
2024/02/08 15:17:11;;;;;;;166.00;157.73;;;;;;;;;;5069437;28;20047;-62
2024/02/08 15:19:45;;;;;;;159.27;151.40;;;;;;;;;;5066572;28;20037;-62
2024/02/08 15:24:57;;;;;;;206.02;195.93;;;;;;;;;;5066246;28;20039;-62
2024/02/08 15:27:31;;;;;;;199.75;189.25;;;;;;;;;;5067747;28;20025;-62
2024/02/08 15:30:10;;;;;;;194.68;184.95;;;;;;;;;;5064958;28;20093;-61
2024/02/08 15:32:46;;;;;;;172.10;163.52;;;;;;;;;;5068390;28;20039;-62
2024/02/08 15:35:23;;;;;;;155.52;147.63;;;;;;;;;;5067693;28;20060;-62
2024/02/08 15:38:19;;;;;;;150.75;143.13;;;;;;;;;;5062352;28;20027;-62
2024/02/08 15:40:43;;;;;;;145.43;137.70;;;;;;;;;;5063226;28;20025;-62
2024/02/08 15:43:15;;;;;;;126.97;120.45;;;;;;;;;;5066222;28;20485;-62
2024/02/08 15:45:44;;;;;;;118.88;112.95;;;;;;;;;;5068263;28;20040;-62
2024/02/08 15:48:14;;;;;;;116.32;110.50;;;;;;;;;;5063924;28;20037;-62
2024/02/08 15:50:42;;;;;;;102.97;97.75;;;;;;;;;;5066979;28;20037;-62
2024/02/08 15:53:09;;;;;;;94.40;89.53;;;;;;;;;;5065890;28;20381;-62
2024/02/08 15:55:42;;;;;;;85.07;80.63;;;;;;;;;;5070450;28;20033;-62
2024/02/08 15:58:18;;;;;;;80.47;76.38;;;;;;;;;;5068480;28;20060;-62
2024/02/08 16:03:39;;;;;;;68.15;64.65;;;;;;;;;;5065595;28;20333;-62
2024/02/08 16:09:01;;;;;;;102.93;97.72;;;;;;;;;;5064919;28;20035;-62
2024/02/08 16:11:30;;;;;;;102.05;96.88;;;;;;;;;;5066002;28;20127;-63
2024/02/08 16:14:03;;;;;;;103.38;98.00;;;;;;;;;;5067305;28;20585;-61
2024/02/08 16:16:32;;;;;;;96.60;91.80;;;;;;;;;;5066167;28;20048;-63
2024/02/08 16:21:43;;;;;;;101.40;96.00;;;;;;;;;;5062719;28;20450;-62
2024/02/08 16:24:13;;;;;;;100.35;95.25;;;;;;;;;;5060264;28;20037;-62
2024/02/08 16:26:49;;;;;;;105.82;100.03;;;;;;;;;;5063403;28;20091;-63
2024/02/08 16:29:20;;;;;;;107.38;101.88;;;;;;;;;;5063434;28;20489;-62
2024/02/08 16:31:54;;;;;;;98.47;93.53;;;;;;;;;;5066070;28;20097;-62
2024/02/08 16:34:24;;;;;;;98.00;93.10;;;;;;;;;;5065503;28;20055;-62
2024/02/08 16:36:51;;;;;;;97.75;92.60;;;;;;;;;;5065665;28;20059;-62
2024/02/08 16:41:59;;;;;;;95.55;90.53;;;;;;;;;;5060764;28;20037;-63
2024/02/08 16:45:17;;;;;;;92.55;87.95;;;;;;;;;;5062856;28;20240;-63
2024/02/08 16:47:34;;;;;;;90.15;85.65;;;;;;;;;;5059768;28;20436;-63
2024/02/08 16:50:07;;;;;;;94.43;89.30;;;;;;;;;;5066590;28;20244;-61
2024/02/08 16:52:45;;;;;;;89.95;85.35;;;;;;;;;;5066750;28;20106;-62
2024/02/08 16:55:12;;;;;;;88.43;83.90;;;;;;;;;;5063424;28;20033;-63
2024/02/08 16:57:41;;;;;;;82.38;78.00;;;;;;;;;;5066979;28;20039;-62
2024/02/08 17:05:49;;;;;;;80.70;76.00;;;;;;;;;;5056667;28;20542;-63
2024/02/08 17:08:39;;;;;;;73.57;69.78;;;;;;;;;;5063627;28;20059;-63